createdAt,value
2017-09-01T00:00:42.839Z,0
2017-09-01T00:01:44.228Z,0
2017-09-01T00:02:45.683Z,0
2017-09-01T00:03:47.063Z,0
2017-09-01T00:04:49.468Z,0
2017-09-01T00:05:50.830Z,0
2017-09-01T00:06:52.231Z,0
2017-09-01T00:07:53.640Z,0
2017-09-01T00:08:55.022Z,0
2017-09-01T00:09:56.405Z,0
2017-09-01T00:10:57.786Z,0
2017-09-01T00:11:59.175Z,0
2017-09-01T00:13:00.566Z,0
2017-09-01T00:14:01.941Z,0
2017-09-01T00:15:03.316Z,0
2017-09-01T00:16:04.722Z,0
2017-09-01T00:17:06.123Z,0
2017-09-01T00:18:07.553Z,0
2017-09-01T00:19:08.927Z,0
2017-09-01T00:20:10.351Z,0
2017-09-01T00:21:11.759Z,0
2017-09-01T00:22:13.196Z,0
2017-09-01T00:23:14.586Z,0
2017-09-01T00:24:15.954Z,0
2017-09-01T00:25:17.353Z,0
2017-09-01T00:26:18.728Z,0
2017-09-01T00:27:20.103Z,0
2017-09-01T00:28:21.471Z,0
2017-09-01T00:29:22.911Z,0
2017-09-01T00:30:24.270Z,0
2017-09-01T00:31:25.646Z,0
2017-09-01T00:32:27.027Z,0
2017-09-01T00:33:28.403Z,0
2017-09-01T00:34:29.772Z,0
2017-09-01T00:35:32.198Z,0
2017-09-01T00:36:33.564Z,0
2017-09-01T00:37:34.934Z,0
2017-09-01T00:38:36.332Z,0
2017-09-01T00:39:37.687Z,0
2017-09-01T00:40:39.064Z,0
2017-09-01T00:41:40.436Z,0
2017-09-01T00:42:41.805Z,0
2017-09-01T00:43:43.194Z,0
2017-09-01T00:44:44.570Z,0
2017-09-01T00:45:45.943Z,0
2017-09-01T00:46:47.311Z,0
2017-09-01T00:47:48.682Z,0
2017-09-01T00:48:50.055Z,0
2017-09-01T00:49:51.436Z,0
2017-09-01T00:50:52.839Z,0
2017-09-01T00:51:54.207Z,0
2017-09-01T00:52:55.595Z,0
2017-09-01T00:53:56.988Z,0
2017-09-01T00:54:58.366Z,0
2017-09-01T00:55:59.818Z,0
2017-09-01T00:57:01.197Z,0
2017-09-01T00:58:02.576Z,0
2017-09-01T00:59:03.952Z,0
2017-09-01T01:00:05.345Z,0
2017-09-01T01:01:06.715Z,0
2017-09-01T01:02:08.109Z,0
2017-09-01T01:03:09.466Z,0
2017-09-01T01:04:10.854Z,0
2017-09-01T01:05:12.227Z,0
2017-09-01T01:06:13.611Z,0
2017-09-01T01:07:14.995Z,0
2017-09-01T01:08:16.376Z,0
2017-09-01T01:09:17.750Z,0
2017-09-01T01:10:19.122Z,0
2017-09-01T01:11:20.494Z,0
2017-09-01T01:12:21.872Z,0
2017-09-01T01:13:23.249Z,0
2017-09-01T01:14:24.632Z,0
2017-09-01T01:15:26.008Z,0
2017-09-01T01:16:27.413Z,0
2017-09-01T01:17:28.789Z,0
2017-09-01T01:18:30.190Z,0
2017-09-01T01:19:31.605Z,0
2017-09-01T01:20:32.984Z,0
2017-09-01T01:21:34.349Z,0
2017-09-01T01:22:35.738Z,0
2017-09-01T01:23:37.121Z,0
2017-09-01T01:24:38.500Z,0
2017-09-01T01:25:39.871Z,0
2017-09-01T01:26:41.254Z,0
2017-09-01T01:27:42.629Z,0
2017-09-01T01:28:44.002Z,0
2017-09-01T01:29:45.419Z,0
2017-09-01T01:30:46.794Z,0
2017-09-01T01:31:48.162Z,0
2017-09-01T01:32:49.552Z,0
2017-09-01T01:33:50.924Z,0
2017-09-01T01:34:52.314Z,0
2017-09-01T01:35:53.702Z,0
2017-09-01T01:36:55.078Z,0
2017-09-01T01:37:56.456Z,0
2017-09-01T01:38:57.926Z,0
2017-09-01T01:39:59.292Z,0
2017-09-01T01:41:00.667Z,0
2017-09-01T01:42:02.040Z,0
2017-09-01T01:43:03.408Z,0
2017-09-01T01:44:04.790Z,0
2017-09-01T01:45:06.167Z,0
2017-09-01T01:46:07.534Z,0
2017-09-01T01:47:08.928Z,0
2017-09-01T01:48:10.304Z,0
2017-09-01T01:49:11.679Z,0
2017-09-01T01:50:13.103Z,0
2017-09-01T01:51:14.474Z,0
2017-09-01T01:52:15.856Z,0
2017-09-01T01:53:17.285Z,0
2017-09-01T01:54:18.669Z,0
2017-09-01T01:55:20.058Z,0
2017-09-01T01:56:21.495Z,0
2017-09-01T01:57:22.873Z,0
2017-09-01T01:58:24.256Z,0
2017-09-01T01:59:25.667Z,0
2017-09-01T02:00:27.040Z,0
2017-09-01T02:01:28.408Z,0
2017-09-01T02:02:29.790Z,0
2017-09-01T02:03:31.175Z,0
2017-09-01T02:04:32.553Z,0
2017-09-01T02:05:33.952Z,0
2017-09-01T02:06:35.311Z,0
2017-09-01T02:07:36.688Z,0
2017-09-01T02:08:38.074Z,0
2017-09-01T02:09:39.453Z,0
2017-09-01T02:10:40.826Z,0
2017-09-01T02:11:42.213Z,0
2017-09-01T02:12:43.587Z,0
2017-09-01T02:13:44.963Z,0
2017-09-01T02:14:46.332Z,0
2017-09-01T02:15:47.719Z,0
2017-09-01T02:16:49.081Z,0
2017-09-01T02:17:50.472Z,0
2017-09-01T02:18:51.841Z,0
2017-09-01T02:19:53.215Z,0
2017-09-01T02:20:54.588Z,0
2017-09-01T02:21:55.958Z,0
2017-09-01T02:22:57.378Z,0
2017-09-01T02:23:58.771Z,0
2017-09-01T02:25:00.134Z,0
2017-09-01T02:26:01.509Z,0
2017-09-01T02:27:02.880Z,0
2017-09-01T02:28:04.259Z,0
2017-09-01T02:29:05.662Z,0
2017-09-01T02:30:07.017Z,0
2017-09-01T02:31:08.387Z,0
2017-09-01T02:32:09.751Z,0
2017-09-01T02:33:11.147Z,0
2017-09-01T02:34:12.523Z,0
2017-09-01T02:35:13.885Z,0
2017-09-01T02:36:15.260Z,0
2017-09-01T02:37:16.630Z,0
2017-09-01T02:38:18.005Z,0
2017-09-01T02:39:19.374Z,0
2017-09-01T02:40:20.745Z,0
2017-09-01T02:41:22.128Z,0
2017-09-01T02:42:23.511Z,0
2017-09-01T02:43:24.876Z,0
2017-09-01T02:44:26.251Z,0
2017-09-01T02:45:27.642Z,0
2017-09-01T02:46:29.047Z,0
2017-09-01T02:47:30.418Z,0
2017-09-01T02:48:32.812Z,0
2017-09-01T02:49:34.193Z,0
2017-09-01T02:50:35.563Z,0
2017-09-01T02:51:36.928Z,0
2017-09-01T02:52:38.304Z,0
2017-09-01T02:53:39.672Z,0
2017-09-01T02:54:41.048Z,0
2017-09-01T02:55:42.431Z,0
2017-09-01T02:56:43.806Z,0
2017-09-01T02:57:45.178Z,0
2017-09-01T02:58:46.564Z,0
2017-09-01T02:59:47.935Z,0
2017-09-01T03:00:49.316Z,0
2017-09-01T03:01:50.687Z,0
2017-09-01T03:02:52.068Z,0
2017-09-01T03:03:53.440Z,0
2017-09-01T03:04:54.825Z,0
2017-09-01T03:05:56.195Z,0
2017-09-01T03:06:57.594Z,0
2017-09-01T03:07:58.994Z,0
2017-09-01T03:09:01.429Z,0
2017-09-01T03:10:02.831Z,0
2017-09-01T03:11:04.259Z,0
2017-09-01T03:12:05.684Z,0
2017-09-01T03:13:07.096Z,0
2017-09-01T03:14:08.498Z,0
2017-09-01T03:15:09.975Z,0
2017-09-01T03:16:11.407Z,0
2017-09-01T03:17:12.839Z,0
2017-09-01T03:18:14.276Z,0
2017-09-01T03:19:15.690Z,0
2017-09-01T03:20:17.078Z,0
2017-09-01T03:21:18.457Z,0
2017-09-01T03:22:19.826Z,0
2017-09-01T03:23:21.220Z,0
2017-09-01T03:24:22.651Z,0
2017-09-01T03:25:24.125Z,0
2017-09-01T03:26:25.496Z,0
2017-09-01T03:27:26.896Z,0
2017-09-01T03:28:28.274Z,0
2017-09-01T03:29:30.655Z,0
2017-09-01T03:30:32.048Z,0
2017-09-01T03:31:33.425Z,0
2017-09-01T03:32:34.814Z,0
2017-09-01T03:33:36.205Z,0
2017-09-01T03:34:37.583Z,0
2017-09-01T03:35:38.969Z,0
2017-09-01T03:36:40.343Z,0
2017-09-01T03:37:41.717Z,0
2017-09-01T03:38:43.099Z,0
2017-09-01T03:39:44.477Z,0
2017-09-01T03:40:45.859Z,0
2017-09-01T03:41:47.236Z,0
2017-09-01T03:42:48.602Z,0
2017-09-01T03:43:50.976Z,0
2017-09-01T03:44:52.343Z,0
2017-09-01T03:45:53.722Z,0
2017-09-01T03:46:55.085Z,0
2017-09-01T03:47:56.455Z,0
2017-09-01T03:48:57.828Z,0
2017-09-01T03:49:59.201Z,0
2017-09-01T03:51:00.571Z,0
2017-09-01T03:52:01.946Z,0
2017-09-01T03:53:03.318Z,0
2017-09-01T03:54:04.695Z,0
2017-09-01T03:55:06.062Z,0
2017-09-01T03:56:07.432Z,0
2017-09-01T03:57:08.811Z,0
2017-09-01T03:58:10.183Z,0
2017-09-01T03:59:11.566Z,0
2017-09-01T04:00:12.939Z,0
2017-09-01T04:01:14.315Z,0
2017-09-01T04:02:15.687Z,0
2017-09-01T04:03:17.063Z,0
2017-09-01T04:04:18.432Z,0
2017-09-01T04:05:19.808Z,0
2017-09-01T04:06:21.206Z,0
2017-09-01T04:07:22.576Z,0
2017-09-01T04:08:23.990Z,0
2017-09-01T04:09:25.355Z,0
2017-09-01T04:10:26.736Z,0
2017-09-01T04:11:28.115Z,0
2017-09-01T04:12:29.495Z,0
2017-09-01T04:13:30.886Z,0
2017-09-01T04:14:32.249Z,0
2017-09-01T04:15:33.631Z,0
2017-09-01T04:16:35.038Z,0
2017-09-01T04:17:36.414Z,0
2017-09-01T04:18:37.787Z,0
2017-09-01T04:19:39.169Z,0
2017-09-01T04:20:40.537Z,0
2017-09-01T04:21:41.923Z,0
2017-09-01T04:22:43.315Z,0
2017-09-01T04:23:44.718Z,0
2017-09-01T04:24:46.084Z,0
2017-09-01T04:25:47.507Z,0
2017-09-01T04:26:48.903Z,0
2017-09-01T04:27:50.335Z,0
2017-09-01T04:28:51.711Z,0
2017-09-01T04:29:53.085Z,0
2017-09-01T04:30:54.524Z,0
2017-09-01T04:31:55.901Z,0
2017-09-01T04:32:57.274Z,0
2017-09-01T04:33:58.656Z,0
2017-09-01T04:35:00.029Z,0
2017-09-01T04:36:01.413Z,0
2017-09-01T04:37:02.774Z,0
2017-09-01T04:38:05.155Z,5
2017-09-01T04:39:06.542Z,5
2017-09-01T04:40:07.923Z,5
2017-09-01T04:41:09.300Z,5
2017-09-01T04:42:10.674Z,5
2017-09-01T04:43:12.051Z,11
2017-09-01T04:44:13.425Z,11
2017-09-01T04:45:14.809Z,11
2017-09-01T04:46:16.177Z,11
2017-09-01T04:47:17.558Z,16
2017-09-01T04:48:19.047Z,16
2017-09-01T04:49:20.443Z,16
2017-09-01T04:50:21.844Z,22
2017-09-01T04:51:23.249Z,22
2017-09-01T04:52:24.615Z,22
2017-09-01T04:53:25.998Z,28
2017-09-01T04:54:27.384Z,28
2017-09-01T04:55:28.822Z,28
2017-09-01T04:56:30.235Z,28
2017-09-01T04:57:31.613Z,28
2017-09-01T04:58:32.987Z,28
2017-09-01T04:59:34.365Z,33
2017-09-01T05:00:35.760Z,33
2017-09-01T05:01:37.133Z,33
2017-09-01T05:02:38.505Z,33
2017-09-01T05:03:39.890Z,39
2017-09-01T05:04:41.364Z,39
2017-09-01T05:05:42.743Z,45
2017-09-01T05:06:44.138Z,45
2017-09-01T05:07:45.508Z,50
2017-09-01T05:08:46.892Z,56
2017-09-01T05:09:48.282Z,61
2017-09-01T05:10:49.666Z,67
2017-09-01T05:11:51.043Z,73
2017-09-01T05:12:52.420Z,78
2017-09-01T05:13:53.814Z,84
2017-09-01T05:14:55.218Z,84
2017-09-01T05:15:56.593Z,84
2017-09-01T05:16:57.975Z,84
2017-09-01T05:17:59.381Z,90
2017-09-01T05:19:00.759Z,90
2017-09-01T05:20:02.135Z,95
2017-09-01T05:21:03.515Z,95
2017-09-01T05:22:11.817Z,95
2017-09-01T05:23:13.199Z,101
2017-09-01T05:24:14.576Z,101
2017-09-01T05:25:15.964Z,106
2017-09-01T05:26:17.353Z,106
2017-09-01T05:27:18.822Z,112
2017-09-01T05:28:20.124Z,118
2017-09-01T05:29:21.574Z,123
2017-09-01T05:30:22.968Z,135
2017-09-01T05:31:26.373Z,140
2017-09-01T05:32:27.770Z,151
2017-09-01T05:33:29.183Z,157
2017-09-01T05:34:30.566Z,163
2017-09-01T05:35:31.945Z,163
2017-09-01T05:36:33.326Z,168
2017-09-01T05:37:34.714Z,168
2017-09-01T05:38:36.116Z,168
2017-09-01T05:39:37.542Z,168
2017-09-01T05:40:38.928Z,168
2017-09-01T05:41:40.313Z,168
2017-09-01T05:42:41.696Z,168
2017-09-01T05:43:43.074Z,174
2017-09-01T05:44:44.457Z,174
2017-09-01T05:45:45.852Z,174
2017-09-01T05:46:47.256Z,180
2017-09-01T05:47:48.669Z,185
2017-09-01T05:48:50.051Z,185
2017-09-01T05:49:51.446Z,191
2017-09-01T05:50:52.822Z,191
2017-09-01T05:51:54.214Z,191
2017-09-01T05:52:55.596Z,191
2017-09-01T05:53:56.973Z,185
2017-09-01T05:54:58.356Z,180
2017-09-01T05:55:59.814Z,180
2017-09-01T05:57:01.203Z,174
2017-09-01T05:58:02.576Z,174
2017-09-01T05:59:03.953Z,168
2017-09-01T06:00:05.391Z,168
2017-09-01T06:01:06.812Z,168
2017-09-01T06:02:08.190Z,168
2017-09-01T06:03:09.584Z,168
2017-09-01T06:04:12.069Z,168
2017-09-01T06:05:13.458Z,168
2017-09-01T06:06:14.849Z,174
2017-09-01T06:07:16.229Z,174
2017-09-01T06:08:17.615Z,180
2017-09-01T06:09:19.064Z,185
2017-09-01T06:10:20.444Z,196
2017-09-01T06:11:21.851Z,202
2017-09-01T06:12:23.234Z,213
2017-09-01T06:13:24.615Z,225
2017-09-01T06:14:26.016Z,241
2017-09-01T06:15:27.394Z,258
2017-09-01T06:16:28.788Z,275
2017-09-01T06:17:30.174Z,286
2017-09-01T06:18:31.577Z,292
2017-09-01T06:19:32.957Z,298
2017-09-01T06:20:34.442Z,303
2017-09-01T06:21:35.847Z,315
2017-09-01T06:22:37.241Z,320
2017-09-01T06:23:38.652Z,326
2017-09-01T06:24:40.085Z,337
2017-09-01T06:25:41.463Z,348
2017-09-01T06:26:42.858Z,354
2017-09-01T06:27:44.254Z,365
2017-09-01T06:28:45.664Z,365
2017-09-01T06:29:47.182Z,371
2017-09-01T06:30:48.640Z,382
2017-09-01T06:31:50.008Z,388
2017-09-01T06:32:51.416Z,393
2017-09-01T06:33:52.906Z,399
2017-09-01T06:34:54.399Z,405
2017-09-01T06:35:55.906Z,410
2017-09-01T06:36:57.310Z,416
2017-09-01T06:37:58.699Z,421
2017-09-01T06:39:00.098Z,421
2017-09-01T06:40:01.484Z,427
2017-09-01T06:41:02.941Z,433
2017-09-01T06:42:04.322Z,438
2017-09-01T06:43:05.745Z,444
2017-09-01T06:44:07.144Z,450
2017-09-01T06:45:08.531Z,455
2017-09-01T06:46:09.998Z,461
2017-09-01T06:47:11.392Z,461
2017-09-01T06:48:12.758Z,461
2017-09-01T06:49:14.137Z,461
2017-09-01T06:50:15.541Z,466
2017-09-01T06:51:16.939Z,466
2017-09-01T06:52:18.328Z,472
2017-09-01T06:53:19.716Z,478
2017-09-01T06:54:21.093Z,483
2017-09-01T06:55:22.500Z,495
2017-09-01T06:56:23.891Z,500
2017-09-01T06:57:25.300Z,506
2017-09-01T06:58:26.666Z,511
2017-09-01T06:59:28.061Z,517
2017-09-01T07:00:29.473Z,523
2017-09-01T07:02:01.206Z,540
2017-09-01T07:03:02.586Z,545
2017-09-01T07:04:04.022Z,556
2017-09-01T07:05:05.400Z,568
2017-09-01T07:06:06.823Z,579
2017-09-01T07:07:08.222Z,579
2017-09-01T07:08:09.623Z,596
2017-09-01T07:09:11.001Z,596
2017-09-01T07:10:12.383Z,596
2017-09-01T07:11:13.791Z,601
2017-09-01T07:12:15.313Z,601
2017-09-01T07:13:16.844Z,607
2017-09-01T07:14:18.240Z,607
2017-09-01T07:15:19.619Z,607
2017-09-01T07:16:21.060Z,613
2017-09-01T07:17:22.454Z,618
2017-09-01T07:18:23.864Z,630
2017-09-01T07:19:25.234Z,641
2017-09-01T07:20:26.624Z,663
2017-09-01T07:21:28.001Z,675
2017-09-01T07:22:29.395Z,691
2017-09-01T07:23:30.794Z,703
2017-09-01T07:24:32.219Z,714
2017-09-01T07:25:33.601Z,720
2017-09-01T07:26:35.014Z,725
2017-09-01T07:27:36.399Z,731
2017-09-01T07:28:37.806Z,725
2017-09-01T07:29:39.200Z,720
2017-09-01T07:30:40.587Z,725
2017-09-01T07:31:41.977Z,720
2017-09-01T07:32:43.405Z,720
2017-09-01T07:33:44.781Z,725
2017-09-01T07:34:46.192Z,714
2017-09-01T07:35:47.602Z,731
2017-09-01T07:36:48.999Z,736
2017-09-01T07:37:50.413Z,781
2017-09-01T07:38:51.819Z,770
2017-09-01T07:39:53.218Z,765
2017-09-01T07:40:54.641Z,765
2017-09-01T07:41:56.011Z,770
2017-09-01T07:42:57.413Z,776
2017-09-01T07:43:58.824Z,781
2017-09-01T07:45:00.274Z,781
2017-09-01T07:46:01.658Z,776
2017-09-01T07:47:03.060Z,781
2017-09-01T07:48:04.464Z,770
2017-09-01T07:49:05.861Z,770
2017-09-01T07:50:07.266Z,787
2017-09-01T07:51:08.708Z,798
2017-09-01T07:52:10.103Z,815
2017-09-01T07:53:11.505Z,849
2017-09-01T07:54:12.924Z,860
2017-09-01T07:55:14.337Z,888
2017-09-01T07:56:15.743Z,928
2017-09-01T07:57:17.127Z,945
2017-09-01T07:58:18.514Z,973
2017-09-01T07:59:19.909Z,990
2017-09-01T08:00:21.294Z,1012
2017-09-01T08:02:01.259Z,1125
2017-09-01T08:03:02.670Z,1141
2017-09-01T08:04:04.110Z,1158
2017-09-01T08:05:05.508Z,1136
2017-09-01T08:06:07.055Z,1085
2017-09-01T08:07:08.488Z,1040
2017-09-01T08:08:09.950Z,1040
2017-09-01T08:09:11.404Z,990
2017-09-01T08:10:13.014Z,990
2017-09-01T08:11:14.480Z,984
2017-09-01T08:12:15.884Z,995
2017-09-01T08:13:17.313Z,1018
2017-09-01T08:14:18.753Z,1091
2017-09-01T08:15:20.196Z,1035
2017-09-01T08:16:21.624Z,1085
2017-09-01T08:17:23.001Z,1085
2017-09-01T08:18:24.427Z,1113
2017-09-01T08:19:25.843Z,1158
2017-09-01T08:20:27.384Z,1130
2017-09-01T08:21:28.940Z,1091
2017-09-01T08:22:30.503Z,1102
2017-09-01T08:23:32.049Z,1158
2017-09-01T08:24:33.630Z,1108
2017-09-01T08:25:35.118Z,1175
2017-09-01T08:26:36.668Z,1164
2017-09-01T08:27:38.612Z,1119
2017-09-01T08:28:40.125Z,1091
2017-09-01T08:29:41.580Z,1153
2017-09-01T08:30:43.113Z,1136
2017-09-01T08:31:44.623Z,1175
2017-09-01T08:32:46.271Z,1192
2017-09-01T08:33:47.799Z,1192
2017-09-01T08:34:49.327Z,1170
2017-09-01T08:35:50.882Z,1141
2017-09-01T08:36:52.447Z,1113
2017-09-01T08:37:53.964Z,1108
2017-09-01T08:38:55.476Z,1125
2017-09-01T08:39:56.972Z,1096
2017-09-01T08:40:58.587Z,1102
2017-09-01T08:42:00.731Z,1085
2017-09-01T08:43:02.298Z,1119
2017-09-01T08:44:04.025Z,1147
2017-09-01T08:45:05.624Z,1164
2017-09-01T08:46:07.139Z,1198
2017-09-01T08:47:08.732Z,1215
2017-09-01T08:48:10.212Z,1248
2017-09-01T08:49:11.755Z,1282
2017-09-01T08:50:13.217Z,1316
2017-09-01T08:51:14.751Z,1355
2017-09-01T08:52:16.324Z,1333
2017-09-01T08:53:18.896Z,1282
2017-09-01T08:54:20.412Z,1378
2017-09-01T08:55:22.033Z,1215
2017-09-01T08:56:23.575Z,1248
2017-09-01T08:57:25.157Z,1231
2017-09-01T08:58:26.674Z,1254
2017-09-01T08:59:28.226Z,1254
2017-09-01T09:00:29.896Z,1254
2017-09-01T09:02:01.391Z,1344
2017-09-01T09:03:02.789Z,1321
2017-09-01T09:04:04.207Z,1305
2017-09-01T09:05:05.735Z,1321
2017-09-01T09:06:07.141Z,1316
2017-09-01T09:07:08.575Z,1350
2017-09-01T09:08:09.990Z,1316
2017-09-01T09:09:11.489Z,1282
2017-09-01T09:10:12.882Z,1338
2017-09-01T09:11:14.263Z,1248
2017-09-01T09:12:15.670Z,1428
2017-09-01T09:13:17.098Z,1440
2017-09-01T09:14:18.576Z,1389
2017-09-01T09:15:25.423Z,1389
2017-09-01T09:16:27.079Z,1350
2017-09-01T09:17:28.561Z,1451
2017-09-01T09:18:30.148Z,1490
2017-09-01T09:19:31.737Z,1411
2017-09-01T09:20:33.299Z,1395
2017-09-01T09:21:34.796Z,1411
2017-09-01T09:22:37.304Z,1546
2017-09-01T09:23:38.935Z,1636
2017-09-01T09:24:40.572Z,1400
2017-09-01T09:25:42.199Z,1485
2017-09-01T09:26:43.790Z,1530
2017-09-01T09:27:45.319Z,1580
2017-09-01T09:28:46.912Z,1732
2017-09-01T09:29:48.453Z,1738
2017-09-01T09:30:50.356Z,1513
2017-09-01T09:31:51.926Z,1327
2017-09-01T09:32:54.012Z,1603
2017-09-01T09:33:56.360Z,1636
2017-09-01T09:34:57.926Z,1783
2017-09-01T09:36:00.166Z,1912
2017-09-01T09:37:05.259Z,1895
2017-09-01T09:38:07.157Z,1749
2017-09-01T09:39:08.804Z,1541
2017-09-01T09:40:10.737Z,1541
2017-09-01T09:41:12.698Z,1400
2017-09-01T09:42:15.023Z,1721
2017-09-01T09:43:17.369Z,1580
2017-09-01T09:44:19.237Z,1957
2017-09-01T09:45:22.151Z,1305
2017-09-01T09:46:24.165Z,1305
2017-09-01T09:47:25.716Z,1417
2017-09-01T09:48:27.271Z,1316
2017-09-01T09:49:28.837Z,1721
2017-09-01T09:50:30.370Z,1951
2017-09-01T09:51:31.946Z,2115
2017-09-01T09:52:33.434Z,2154
2017-09-01T09:53:34.957Z,2311
2017-09-01T09:54:36.490Z,2401
2017-09-01T09:55:38.053Z,2362
2017-09-01T09:56:39.691Z,1980
2017-09-01T09:57:41.202Z,1861
2017-09-01T09:58:42.751Z,2036
2017-09-01T09:59:44.305Z,1608
2017-09-01T10:02:01.380Z,1361
2017-09-01T10:03:02.782Z,1704
2017-09-01T10:04:04.210Z,1546
2017-09-01T10:05:05.611Z,1383
2017-09-01T10:06:07.023Z,1535
2017-09-01T10:07:08.445Z,1659
2017-09-01T10:08:09.860Z,1395
2017-09-01T10:09:11.262Z,1237
2017-09-01T10:10:12.710Z,1186
2017-09-01T10:11:14.132Z,1237
2017-09-01T10:12:15.552Z,1254
2017-09-01T10:13:16.941Z,1327
2017-09-01T10:14:19.344Z,1411
2017-09-01T10:15:20.769Z,1985
2017-09-01T10:16:22.205Z,1524
2017-09-01T10:17:23.617Z,1681
2017-09-01T10:18:25.040Z,2345
2017-09-01T10:19:26.542Z,1456
2017-09-01T10:20:27.968Z,1383
2017-09-01T10:21:29.514Z,1890
2017-09-01T10:22:30.901Z,1743
2017-09-01T10:23:32.318Z,1845
2017-09-01T10:24:33.719Z,2829
2017-09-01T10:25:35.200Z,2098
2017-09-01T10:26:36.645Z,1625
2017-09-01T10:27:38.048Z,1586
2017-09-01T10:28:39.588Z,1226
2017-09-01T10:29:40.977Z,1530
2017-09-01T10:30:42.415Z,1524
2017-09-01T10:31:43.821Z,2373
2017-09-01T10:32:45.218Z,2553
2017-09-01T10:33:46.605Z,1468
2017-09-01T10:34:48.023Z,2340
2017-09-01T10:35:49.431Z,1260
2017-09-01T10:36:50.900Z,1125
2017-09-01T10:37:52.464Z,1203
2017-09-01T10:38:53.895Z,2458
2017-09-01T10:39:55.288Z,1608
2017-09-01T10:40:56.687Z,1513
2017-09-01T10:41:58.108Z,1490
2017-09-01T10:43:00.547Z,1265
2017-09-01T10:44:01.918Z,1282
2017-09-01T10:45:03.352Z,1378
2017-09-01T10:46:04.740Z,1153
2017-09-01T10:47:06.159Z,1175
2017-09-01T10:48:07.562Z,916
2017-09-01T10:49:08.968Z,1074
2017-09-01T10:50:10.393Z,1608
2017-09-01T10:51:11.810Z,1254
2017-09-01T10:52:13.214Z,1316
2017-09-01T10:53:14.621Z,1113
2017-09-01T10:54:16.082Z,1130
2017-09-01T10:55:17.504Z,1012
2017-09-01T10:56:18.920Z,2216
2017-09-01T10:57:20.329Z,3217
2017-09-01T10:58:21.742Z,3566
2017-09-01T10:59:23.140Z,2874
2017-09-01T11:00:24.537Z,3037
2017-09-01T11:01:25.991Z,2272
2017-09-01T11:02:27.396Z,1541
2017-09-01T11:03:28.803Z,1080
2017-09-01T11:04:30.272Z,1046
2017-09-01T11:05:31.726Z,1018
2017-09-01T11:06:33.169Z,1001
2017-09-01T11:07:35.747Z,1130
2017-09-01T11:08:37.289Z,1119
2017-09-01T11:09:38.842Z,1096
2017-09-01T11:10:40.381Z,1125
2017-09-01T11:11:42.001Z,1366
2017-09-01T11:12:43.499Z,1423
2017-09-01T11:13:45.061Z,2171
2017-09-01T11:14:46.636Z,2986
2017-09-01T11:15:48.167Z,1743
2017-09-01T11:16:49.689Z,900
2017-09-01T11:17:51.230Z,849
2017-09-01T11:18:52.754Z,838
2017-09-01T11:19:54.392Z,832
2017-09-01T11:20:55.875Z,815
2017-09-01T11:21:57.408Z,781
2017-09-01T11:22:58.956Z,765
2017-09-01T11:24:00.506Z,748
2017-09-01T11:25:02.027Z,720
2017-09-01T11:26:03.569Z,697
2017-09-01T11:27:05.113Z,703
2017-09-01T11:28:06.644Z,708
2017-09-01T11:29:08.332Z,708
2017-09-01T11:30:09.868Z,697
2017-09-01T11:31:11.447Z,686
2017-09-01T11:32:13.033Z,708
2017-09-01T11:33:14.686Z,731
2017-09-01T11:34:16.267Z,776
2017-09-01T11:35:17.843Z,787
2017-09-01T11:36:19.398Z,804
2017-09-01T11:37:20.924Z,815
2017-09-01T11:38:22.484Z,815
2017-09-01T11:39:24.033Z,810
2017-09-01T11:40:25.548Z,798
2017-09-01T11:41:27.099Z,804
2017-09-01T11:42:28.693Z,804
2017-09-01T11:43:30.210Z,787
2017-09-01T11:44:31.790Z,759
2017-09-01T11:45:33.421Z,742
2017-09-01T11:46:35.005Z,742
2017-09-01T11:47:36.613Z,793
2017-09-01T11:48:38.225Z,843
2017-09-01T11:49:39.840Z,860
2017-09-01T11:50:41.366Z,855
2017-09-01T11:51:42.915Z,849
2017-09-01T11:52:44.440Z,855
2017-09-01T11:53:46.002Z,877
2017-09-01T11:54:47.526Z,860
2017-09-01T11:55:49.116Z,832
2017-09-01T11:56:50.784Z,742
2017-09-01T11:57:52.333Z,669
2017-09-01T11:58:54.066Z,613
2017-09-01T11:59:55.588Z,596
2017-09-01T12:00:57.200Z,585
2017-09-01T12:01:58.771Z,579
2017-09-01T12:03:00.362Z,585
2017-09-01T12:04:01.882Z,579
2017-09-01T12:05:03.426Z,556
2017-09-01T12:06:05.008Z,523
2017-09-01T12:07:07.645Z,500
2017-09-01T12:08:09.219Z,489
2017-09-01T12:09:10.734Z,478
2017-09-01T12:10:12.200Z,483
2017-09-01T12:11:13.723Z,500
2017-09-01T12:12:15.281Z,495
2017-09-01T12:13:16.783Z,489
2017-09-01T12:14:18.324Z,495
2017-09-01T12:15:19.877Z,511
2017-09-01T12:16:21.378Z,517
2017-09-01T12:17:22.924Z,511
2017-09-01T12:18:24.634Z,500
2017-09-01T12:19:26.018Z,506
2017-09-01T12:20:27.545Z,500
2017-09-01T12:21:29.207Z,506
2017-09-01T12:22:30.730Z,523
2017-09-01T12:23:32.228Z,540
2017-09-01T12:24:34.308Z,551
2017-09-01T12:25:35.854Z,562
2017-09-01T12:26:37.367Z,568
2017-09-01T12:27:38.871Z,568
2017-09-01T12:28:40.407Z,568
2017-09-01T12:29:41.978Z,573
2017-09-01T12:30:44.108Z,579
2017-09-01T12:31:45.937Z,585
2017-09-01T12:32:47.499Z,590
2017-09-01T12:33:49.076Z,585
2017-09-01T12:34:50.587Z,585
2017-09-01T12:35:52.271Z,590
2017-09-01T12:36:53.852Z,596
2017-09-01T12:37:57.854Z,607
2017-09-01T12:38:59.394Z,607
2017-09-01T12:40:00.931Z,590
2017-09-01T12:41:02.511Z,585
2017-09-01T12:42:04.027Z,590
2017-09-01T12:43:05.618Z,596
2017-09-01T12:44:07.160Z,601
2017-09-01T12:45:08.744Z,624
2017-09-01T12:46:10.276Z,652
2017-09-01T12:47:11.873Z,680
2017-09-01T12:48:13.430Z,697
2017-09-01T12:49:14.946Z,714
2017-09-01T12:50:16.471Z,731
2017-09-01T12:51:18.088Z,736
2017-09-01T12:52:19.712Z,753
2017-09-01T12:53:21.237Z,770
2017-09-01T12:54:23.892Z,770
2017-09-01T12:55:25.447Z,776
2017-09-01T12:56:27.010Z,798
2017-09-01T12:57:28.627Z,826
2017-09-01T12:58:30.314Z,838
2017-09-01T12:59:31.892Z,849
2017-09-01T13:00:33.556Z,866
2017-09-01T13:01:35.120Z,877
2017-09-01T13:02:36.720Z,877
2017-09-01T13:03:38.253Z,894
2017-09-01T13:04:39.800Z,916
2017-09-01T13:05:41.384Z,950
2017-09-01T13:06:42.944Z,1006
2017-09-01T13:07:44.545Z,1080
2017-09-01T13:08:46.557Z,1445
2017-09-01T13:09:48.191Z,1890
2017-09-01T13:10:49.728Z,1940
2017-09-01T13:11:51.511Z,1980
2017-09-01T13:12:53.025Z,1929
2017-09-01T13:13:54.612Z,1957
2017-09-01T13:14:56.270Z,1276
2017-09-01T13:15:57.925Z,1175
2017-09-01T13:16:59.546Z,1102
2017-09-01T13:18:01.153Z,1096
2017-09-01T13:19:02.730Z,1119
2017-09-01T13:20:04.287Z,1170
2017-09-01T13:21:05.895Z,1153
2017-09-01T13:22:07.406Z,1125
2017-09-01T13:23:08.931Z,1113
2017-09-01T13:24:10.475Z,1147
2017-09-01T13:25:12.082Z,1783
2017-09-01T13:26:13.723Z,1260
2017-09-01T13:27:15.231Z,1575
2017-09-01T13:28:16.805Z,1445
2017-09-01T13:29:18.785Z,1136
2017-09-01T13:30:20.305Z,2210
2017-09-01T13:31:21.814Z,2120
2017-09-01T13:32:23.416Z,1980
2017-09-01T13:33:24.993Z,2137
2017-09-01T13:34:26.593Z,2205
2017-09-01T13:35:28.167Z,2272
2017-09-01T13:36:29.727Z,2058
2017-09-01T13:37:31.392Z,1777
2017-09-01T13:38:33.013Z,1406
2017-09-01T13:39:34.623Z,1366
2017-09-01T13:40:36.188Z,1288
2017-09-01T13:41:37.810Z,1361
2017-09-01T13:42:39.365Z,1282
2017-09-01T13:43:40.904Z,1198
2017-09-01T13:44:42.478Z,1170
2017-09-01T13:45:44.035Z,1147
2017-09-01T13:46:45.600Z,1096
2017-09-01T13:47:47.154Z,1035
2017-09-01T13:48:48.676Z,1006
2017-09-01T13:49:50.273Z,1018
2017-09-01T13:50:51.835Z,1035
2017-09-01T13:51:53.463Z,1096
2017-09-01T13:52:54.996Z,1361
2017-09-01T13:53:56.624Z,1203
2017-09-01T13:54:58.266Z,1271
2017-09-01T13:55:59.888Z,1170
2017-09-01T13:57:01.464Z,1383
2017-09-01T13:58:03.047Z,1035
2017-09-01T13:59:04.630Z,849
2017-09-01T14:00:06.210Z,798
2017-09-01T14:02:02.584Z,826
2017-09-01T14:03:04.063Z,1130
2017-09-01T14:04:05.541Z,832
2017-09-01T14:05:06.978Z,770
2017-09-01T14:06:08.447Z,781
2017-09-01T14:07:09.949Z,691
2017-09-01T14:08:11.396Z,646
2017-09-01T14:09:13.005Z,607
2017-09-01T14:10:14.459Z,585
2017-09-01T14:11:15.891Z,590
2017-09-01T14:12:17.349Z,590
2017-09-01T14:13:18.886Z,601
2017-09-01T14:14:20.416Z,596
2017-09-01T14:15:21.830Z,585
2017-09-01T14:16:23.323Z,568
2017-09-01T14:17:24.766Z,562
2017-09-01T14:18:26.248Z,568
2017-09-01T14:19:27.715Z,585
2017-09-01T14:20:29.190Z,607
2017-09-01T14:21:30.612Z,635
2017-09-01T14:22:32.073Z,669
2017-09-01T14:23:33.636Z,697